createdAt,value
2019-01-22T00:00:49.657Z,14.40
2019-01-22T00:06:05.414Z,14.37
2019-01-22T00:11:20.952Z,14.70
2019-01-22T00:16:36.969Z,14.33
2019-01-22T00:21:52.242Z,15.63
2019-01-22T00:27:07.856Z,15.33
2019-01-22T00:32:23.201Z,15.10
2019-01-22T00:37:38.703Z,14.17
2019-01-22T00:42:54.302Z,14.57
2019-01-22T00:48:09.573Z,14.43
2019-01-22T00:53:24.945Z,14.80
2019-01-22T00:58:40.469Z,13.93
2019-01-22T01:03:55.958Z,13.70
2019-01-22T01:09:11.650Z,14.13
2019-01-22T01:14:26.822Z,14.03
2019-01-22T01:19:42.830Z,14.63
2019-01-22T01:24:58.701Z,13.33
2019-01-22T01:30:14.701Z,13.07
2019-01-22T01:35:30.381Z,13.53
2019-01-22T01:40:46.659Z,13.47
2019-01-22T01:46:02.361Z,13.23
2019-01-22T01:51:17.633Z,14.40
2019-01-22T01:56:33.706Z,12.47
2019-01-22T02:01:49.740Z,12.80
2019-01-22T02:07:06.943Z,13.07
2019-01-22T02:12:22.770Z,12.73
2019-01-22T02:17:39.345Z,13.20
2019-01-22T02:22:55.021Z,12.30
2019-01-22T02:28:10.517Z,12.00
2019-01-22T02:33:25.968Z,11.93
2019-01-22T02:38:41.559Z,12.07
2019-01-22T02:43:57.785Z,13.10
2019-01-22T02:49:13.478Z,12.07
2019-01-22T02:54:28.971Z,12.37
2019-01-22T02:59:44.479Z,10.57
2019-01-22T03:05:00.744Z,10.27
2019-01-22T03:10:16.541Z,9.10
2019-01-22T03:15:31.897Z,8.70
2019-01-22T03:20:47.157Z,9.60
2019-01-22T03:26:03.410Z,9.03
2019-01-22T03:31:18.903Z,8.87
2019-01-22T03:36:34.679Z,8.90
2019-01-22T03:41:50.209Z,7.83
2019-01-22T03:47:05.898Z,8.07
2019-01-22T03:52:21.182Z,8.27
2019-01-22T03:57:36.791Z,8.33
2019-01-22T04:02:52.878Z,8.03
2019-01-22T04:08:12.046Z,8.43
2019-01-22T04:13:27.474Z,8.10
2019-01-22T04:18:42.788Z,8.03
2019-01-22T04:24:01.824Z,7.27
2019-01-22T04:29:15.946Z,6.93
2019-01-22T04:34:31.410Z,7.13
2019-01-22T04:39:47.093Z,7.27
2019-01-22T04:45:02.613Z,7.73
2019-01-22T04:50:18.241Z,7.77
2019-01-22T04:55:33.910Z,6.87
2019-01-22T05:00:49.390Z,7.10
2019-01-22T05:06:04.934Z,6.97
2019-01-22T05:11:20.745Z,6.80
2019-01-22T05:16:36.384Z,8.13
2019-01-22T05:21:51.725Z,7.83
2019-01-22T05:27:07.538Z,8.10
2019-01-22T05:32:24.057Z,7.63
2019-01-22T05:37:39.602Z,8.20
2019-01-22T05:42:55.398Z,7.63
2019-01-22T05:48:13.417Z,7.47
2019-01-22T05:53:29.547Z,7.90
2019-01-22T05:58:44.953Z,9.47
2019-01-22T06:04:00.892Z,9.43
2019-01-22T06:09:16.755Z,7.70
2019-01-22T06:14:32.546Z,8.43
2019-01-22T06:19:47.731Z,8.13
2019-01-22T06:25:03.274Z,8.20
2019-01-22T06:30:21.730Z,8.83
2019-01-22T06:35:37.270Z,8.63
2019-01-22T06:40:52.521Z,7.40
2019-01-22T06:46:09.014Z,8.50
2019-01-22T06:51:24.321Z,8.50
2019-01-22T06:56:39.661Z,8.57
2019-01-22T07:01:55.338Z,9.53
2019-01-22T07:07:10.977Z,9.00
2019-01-22T07:12:26.617Z,8.23
2019-01-22T07:17:42.058Z,8.33
2019-01-22T07:22:58.102Z,8.73
2019-01-22T07:28:13.513Z,9.67
2019-01-22T07:33:29.629Z,8.67
2019-01-22T07:38:46.324Z,8.77
2019-01-22T07:44:02.688Z,8.90
2019-01-22T07:49:18.713Z,8.87
2019-01-22T07:54:34.335Z,9.90
2019-01-22T07:59:49.926Z,10.27
2019-01-22T08:05:07.038Z,7.77
2019-01-22T08:10:23.066Z,10.07
2019-01-22T08:15:39.286Z,9.93
2019-01-22T08:20:54.760Z,9.93
2019-01-22T08:26:10.773Z,9.83
2019-01-22T08:31:26.037Z,9.73
2019-01-22T08:36:42.385Z,9.47
2019-01-22T08:41:57.605Z,10.83
2019-01-22T08:47:13.214Z,10.23
2019-01-22T08:52:29.192Z,9.63
2019-01-22T08:57:44.914Z,9.33
2019-01-22T09:03:00.257Z,8.13
2019-01-22T09:08:16.182Z,9.13
2019-01-22T09:13:32.102Z,7.20
2019-01-22T09:18:48.061Z,5.13
2019-01-22T09:24:03.306Z,7.37
2019-01-22T09:29:19.085Z,7.17
2019-01-22T09:34:34.686Z,6.97
2019-01-22T09:39:49.917Z,5.80
2019-01-22T09:45:05.681Z,7.77
2019-01-22T09:50:21.333Z,9.60
2019-01-22T09:55:39.586Z,8.67
2019-01-22T10:00:55.563Z,8.47
2019-01-22T10:06:10.980Z,7.33
2019-01-22T10:11:26.461Z,6.00
2019-01-22T10:16:42.533Z,6.70
2019-01-22T10:21:58.184Z,6.93
2019-01-22T10:27:01.856Z,5.23
2019-01-22T10:32:24.892Z,6.03
2019-01-22T10:37:47.994Z,7.70
2019-01-22T10:43:09.242Z,6.40
2019-01-22T10:48:21.305Z,4.30
2019-01-22T10:53:38.177Z,5.13
2019-01-22T10:58:54.317Z,7.57
2019-01-22T11:04:09.629Z,7.87
2019-01-22T11:09:25.220Z,7.13
2019-01-22T11:14:41.278Z,4.87
2019-01-22T11:19:57.453Z,8.33
2019-01-22T11:25:13.428Z,7.20
2019-01-22T11:30:28.913Z,8.40
2019-01-22T11:35:45.225Z,8.40
2019-01-22T11:41:01.569Z,6.43
2019-01-22T11:46:17.130Z,6.00
2019-01-22T11:51:33.262Z,7.23
2019-01-22T11:56:48.765Z,5.73
2019-01-22T12:02:04.202Z,6.17
2019-01-22T12:07:19.798Z,7.40
2019-01-22T12:12:35.274Z,7.63
2019-01-22T12:17:51.085Z,7.17
2019-01-22T12:23:06.907Z,8.17
2019-01-22T12:28:22.162Z,8.57
2019-01-22T12:33:37.685Z,7.93
2019-01-22T12:38:53.271Z,8.90
2019-01-22T12:44:08.674Z,7.77
2019-01-22T12:49:24.369Z,7.57
2019-01-22T12:54:39.938Z,3.77
2019-01-22T12:59:55.533Z,7.87
2019-01-22T13:05:11.381Z,8.53
2019-01-22T13:10:26.874Z,8.90
2019-01-22T13:15:42.528Z,7.20
2019-01-22T13:20:58.477Z,8.27
2019-01-22T13:26:14.516Z,8.63
2019-01-22T13:31:30.989Z,7.43
2019-01-22T13:36:46.806Z,8.07
2019-01-22T13:42:02.251Z,8.70
2019-01-22T13:47:17.806Z,9.23
2019-01-22T13:52:33.368Z,7.80
2019-01-22T13:57:48.793Z,9.00
2019-01-22T14:03:04.306Z,5.93
2019-01-22T14:08:19.909Z,9.43
2019-01-22T14:13:36.018Z,8.53
2019-01-22T14:18:51.465Z,8.07
2019-01-22T14:24:06.879Z,9.70
2019-01-22T14:29:23.034Z,6.30
2019-01-22T14:34:39.470Z,9.37
2019-01-22T14:39:55.026Z,8.40
2019-01-22T14:45:10.558Z,8.97
2019-01-22T14:50:26.282Z,10.70
2019-01-22T14:55:42.177Z,9.33
2019-01-22T15:00:57.773Z,10.47
2019-01-22T15:06:13.513Z,10.10
2019-01-22T15:11:29.120Z,10.00
2019-01-22T15:16:44.949Z,10.43
2019-01-22T15:22:00.522Z,9.97
2019-01-22T15:27:16.828Z,9.97
2019-01-22T15:32:32.273Z,8.70
2019-01-22T15:37:47.695Z,11.60
2019-01-22T15:43:02.973Z,10.20
2019-01-22T15:48:18.149Z,10.27
2019-01-22T15:53:33.736Z,11.87
2019-01-22T15:58:49.998Z,8.23
2019-01-22T16:04:05.497Z,11.47
2019-01-22T16:09:21.541Z,13.00
2019-01-22T16:14:37.424Z,11.20
2019-01-22T16:19:53.313Z,13.00
2019-01-22T16:25:09.106Z,12.07
2019-01-22T16:30:24.555Z,10.40
2019-01-22T16:35:40.222Z,8.77
2019-01-22T16:40:55.949Z,11.40
2019-01-22T16:46:11.664Z,11.70
2019-01-22T16:51:27.429Z,12.07
2019-01-22T16:56:43.285Z,9.50
2019-01-22T17:01:59.133Z,10.93
2019-01-22T17:07:14.865Z,10.27
2019-01-22T17:12:30.718Z,6.00
2019-01-22T17:17:45.921Z,10.13
2019-01-22T17:23:02.550Z,11.57
2019-01-22T17:28:18.445Z,11.60
2019-01-22T17:33:35.865Z,11.20
2019-01-22T17:38:51.617Z,10.63
2019-01-22T17:44:07.462Z,10.47
2019-01-22T17:49:22.945Z,11.97
2019-01-22T17:54:38.889Z,10.50
2019-01-22T17:59:54.513Z,11.10
2019-01-22T18:05:09.865Z,12.23
2019-01-22T18:10:26.028Z,11.97
2019-01-22T18:15:41.951Z,10.20
2019-01-22T18:20:57.938Z,11.63
2019-01-22T18:26:13.271Z,11.97
2019-01-22T18:31:29.010Z,13.23
2019-01-22T18:36:44.777Z,9.03
2019-01-22T18:42:00.877Z,14.07
2019-01-22T18:47:16.185Z,11.33
2019-01-22T18:52:31.329Z,9.93
2019-01-22T18:57:47.185Z,8.67
2019-01-22T19:03:02.577Z,14.40
2019-01-22T19:08:18.070Z,13.23
2019-01-22T19:13:34.305Z,8.27
2019-01-22T19:18:50.058Z,13.07
2019-01-22T19:24:05.737Z,13.00
2019-01-22T19:29:21.582Z,13.10
2019-01-22T19:34:37.289Z,13.00
2019-01-22T19:39:52.919Z,9.60
2019-01-22T19:45:08.820Z,12.93
2019-01-22T19:50:24.122Z,11.53
2019-01-22T19:55:39.829Z,11.73
2019-01-22T20:00:55.750Z,14.33
2019-01-22T20:06:11.673Z,13.60
2019-01-22T20:11:27.881Z,17.03
2019-01-22T20:16:43.477Z,12.97
2019-01-22T20:21:58.949Z,10.20
2019-01-22T20:27:15.257Z,13.97
2019-01-22T20:32:30.970Z,14.93
2019-01-22T20:37:46.850Z,13.17
2019-01-22T20:43:02.350Z,15.60
2019-01-22T20:48:17.659Z,13.53
2019-01-22T20:53:33.674Z,14.83
2019-01-22T20:58:49.190Z,15.50
2019-01-22T21:04:04.645Z,15.03
2019-01-22T21:09:20.046Z,18.27
2019-01-22T21:14:35.358Z,13.73
2019-01-22T21:19:50.945Z,15.27
2019-01-22T21:25:06.689Z,16.43
2019-01-22T21:30:22.375Z,15.70
2019-01-22T21:35:37.885Z,14.67
2019-01-22T21:40:53.241Z,12.53
2019-01-22T21:46:08.853Z,16.47
2019-01-22T21:51:24.838Z,17.53
2019-01-22T21:56:40.537Z,15.70
2019-01-22T22:01:55.925Z,15.17
2019-01-22T22:07:11.281Z,16.10
2019-01-22T22:12:27.346Z,15.23
2019-01-22T22:17:43.289Z,15.13
2019-01-22T22:22:58.689Z,16.27
2019-01-22T22:28:15.271Z,11.53
2019-01-22T22:33:31.853Z,14.03
2019-01-22T22:38:47.321Z,15.53
2019-01-22T22:44:02.633Z,15.50
2019-01-22T22:49:17.969Z,17.10
2019-01-22T22:54:34.119Z,15.40
2019-01-22T22:59:50.065Z,15.47
2019-01-22T23:05:05.565Z,16.70
2019-01-22T23:10:21.105Z,15.87
2019-01-22T23:15:36.683Z,15.80
2019-01-22T23:20:52.282Z,15.23
2019-01-22T23:26:07.974Z,16.57
2019-01-22T23:31:23.357Z,17.10
2019-01-22T23:36:39.608Z,14.10
2019-01-22T23:41:54.977Z,15.97
2019-01-22T23:47:10.365Z,16.87
2019-01-22T23:52:26.382Z,15.47
2019-01-22T23:57:42.136Z,16.93
